Etusivu
METAR-TAF:

METAR-TAF

Lentoasemat :

Wendover Airport

Wendover, Utah, Yhdysvallat

Leveyspiiri: 40-44N, Pituuspiiri: 114-02W, korkeus merenpinnasta: 1291 m

Tämänhetkinen sää

Tämä raportti tehtiin 12 minuuttia sitten, kello 09.56 UTC
Tuuli 4 kn luoteesta
Lämpötila 17°C
Kosteus 48%
Ilmanpaine 1018 hPa
Näkyvyys: 16.1 km
selkeää

METAR: KENV 290956Z AUTO 31004KT 10SM CLR 17/06 A3007 RMK AO2 SLP143 T01670056

Aika: 04:08 (10:08 UTC)

Sääennuste

Tämä raportti tehtiin 4 tuntia ja 32 minuuttia sitten, kello 05.36 UTC
Ennuste voimassa 29. päivästä klo 06 UTC - 30. päivään klo 06 UTC
Tuuli 4 kn eri suunnista
Näkyvyys: 10 km
Hajanaisia pilviä 15000 ft:n korkeudessa
From 29. päivästä klo 1600 UTC
Tuuli 7 kn idästä
Näkyvyys: 10 km
Hajanaisia pilviä 15000 ft:n korkeudessa

TAF: KENV 290536Z 2906/3006 VRB04KT P6SM SCT150 FM291600 10007KT P6SM SCT150

Säähavainnot ja -ennusteet yli 4000 lentoasemalta (METAR- ja TAF-raportit).

Käytössä olevat sääasemat on merkitty karttaan keltaisilla ja punaisilla pisteillä.

Aseta hiiri pisteen päälle nähdäksesi sääaseman nimen.

Klikkaa sitten nähdäksesi säähavainnot ja -ennusteet.

Kartan vaihtaminen: klikkaa mustalla rastilla varustettuja vihreitä pisteitä, niin voit zoomata sisään; viivalla varustettua vihreää pistettä, niin voit zoomata ulos tai vihreitä nuolia, niin pääset viereisille kartoille.


METAR-TAF: